createdAt,value
2022-08-10T00:01:53.203Z,3.83
2022-08-10T00:04:24.483Z,4.00
2022-08-10T00:06:55.423Z,3.47
2022-08-10T00:09:23.400Z,3.47
2022-08-10T00:11:50.906Z,3.20
2022-08-10T00:14:18.311Z,3.30
2022-08-10T00:16:45.159Z,2.60
2022-08-10T00:19:12.078Z,2.35
2022-08-10T00:21:39.292Z,3.17
2022-08-10T00:24:06.324Z,3.53
2022-08-10T00:27:58.849Z,2.80
2022-08-10T00:29:21.391Z,2.50
2022-08-10T00:31:57.889Z,3.03
2022-08-10T00:34:34.077Z,3.10
2022-08-10T00:37:01.309Z,2.80
2022-08-10T00:39:29.449Z,3.30
2022-08-10T00:44:37.020Z,2.45
2022-08-10T00:47:04.411Z,3.00
2022-08-10T00:49:31.375Z,2.87
2022-08-10T00:51:58.452Z,3.20
2022-08-10T00:54:25.630Z,3.40
2022-08-10T00:57:16.442Z,3.45
2022-08-10T00:59:59.276Z,3.03
2022-08-10T01:02:30.727Z,2.72
2022-08-10T01:05:02.138Z,3.00
2022-08-10T01:07:50.908Z,3.22
2022-08-10T01:10:48.002Z,3.22
2022-08-10T01:13:40.315Z,3.25
2022-08-10T01:16:49.375Z,3.00
2022-08-10T01:19:18.996Z,3.53
2022-08-10T01:22:04.258Z,4.03
2022-08-10T01:24:47.123Z,3.17
2022-08-10T01:27:47.333Z,3.33
2022-08-10T01:30:15.380Z,3.47
2022-08-10T01:32:51.081Z,3.50
2022-08-10T01:35:47.023Z,3.30
2022-08-10T01:38:20.160Z,3.60
2022-08-10T01:40:54.699Z,3.60
2022-08-10T01:43:24.243Z,3.50
2022-08-10T01:45:56.216Z,3.17
2022-08-10T01:48:31.916Z,2.92
2022-08-10T01:51:11.074Z,3.38
2022-08-10T01:53:43.113Z,3.22
2022-08-10T01:56:13.418Z,3.88
2022-08-10T01:58:41.545Z,3.65
2022-08-10T02:01:11.107Z,3.63
2022-08-10T02:04:03.850Z,3.08
2022-08-10T02:06:37.011Z,3.75
2022-08-10T02:09:07.154Z,3.42
2022-08-10T02:11:55.640Z,3.20
2022-08-10T02:14:33.263Z,3.35
2022-08-10T02:17:05.771Z,3.35
2022-08-10T02:19:35.297Z,3.28
2022-08-10T02:22:37.954Z,3.60
2022-08-10T02:24:52.176Z,3.30
2022-08-10T02:27:22.624Z,3.42
2022-08-10T02:29:50.612Z,3.53
2022-08-10T02:32:35.977Z,3.33
2022-08-10T02:35:21.776Z,3.83
2022-08-10T02:37:52.699Z,3.60
2022-08-10T02:42:18.328Z,4.00
2022-08-10T02:45:22.070Z,4.35
2022-08-10T02:46:10.665Z,4.05
2022-08-10T02:48:49.714Z,4.32
2022-08-10T02:52:06.266Z,3.22
2022-08-10T02:54:19.998Z,4.53
2022-08-10T02:57:00.806Z,4.13
2022-08-10T02:59:43.165Z,4.13
2022-08-10T03:02:15.021Z,4.72
2022-08-10T03:04:55.184Z,4.13
2022-08-10T03:07:43.376Z,4.13
2022-08-10T03:10:17.340Z,4.00
2022-08-10T03:12:45.611Z,4.60
2022-08-10T03:17:58.140Z,4.20
2022-08-10T03:20:52.833Z,4.35
2022-08-10T03:23:23.957Z,4.10
2022-08-10T03:25:55.380Z,4.05
2022-08-10T03:28:25.195Z,3.85
2022-08-10T03:30:53.010Z,4.63
2022-08-10T03:33:22.051Z,4.03
2022-08-10T03:36:40.643Z,4.80
2022-08-10T03:38:36.655Z,4.00
2022-08-10T03:41:06.131Z,3.85
2022-08-10T03:43:34.703Z,4.30
2022-08-10T03:46:06.323Z,4.35
2022-08-10T03:48:48.465Z,4.15
2022-08-10T03:51:17.475Z,3.85
2022-08-10T03:54:05.064Z,4.38
2022-08-10T03:56:33.245Z,4.63
2022-08-10T03:59:01.291Z,4.07
2022-08-10T04:02:46.141Z,5.30
2022-08-10T04:04:20.957Z,4.47
2022-08-10T04:06:54.684Z,4.93
2022-08-10T04:09:42.783Z,5.30
2022-08-10T04:12:12.664Z,4.70
2022-08-10T04:14:50.886Z,4.55
2022-08-10T04:17:57.166Z,4.80
2022-08-10T04:20:25.598Z,4.90
2022-08-10T04:22:59.484Z,4.20
2022-08-10T04:25:27.867Z,5.50
2022-08-10T04:27:55.340Z,5.03
2022-08-10T04:30:23.830Z,4.85
2022-08-10T04:32:56.631Z,5.10
2022-08-10T04:35:26.106Z,5.55
2022-08-10T04:37:55.834Z,4.90
2022-08-10T04:40:28.587Z,5.25
2022-08-10T04:43:02.371Z,4.85
2022-08-10T04:45:49.681Z,5.65
2022-08-10T04:48:43.166Z,5.43
2022-08-10T04:51:08.125Z,5.82
2022-08-10T04:54:04.245Z,6.43
2022-08-10T04:56:32.029Z,7.63
2022-08-10T04:59:00.246Z,7.18
2022-08-10T05:01:27.481Z,5.55
2022-08-10T05:04:36.094Z,5.13
2022-08-10T05:07:00.913Z,5.38
2022-08-10T05:09:27.724Z,4.97
2022-08-10T05:11:54.563Z,5.97
2022-08-10T05:14:21.307Z,5.82
2022-08-10T05:16:48.291Z,6.13
2022-08-10T05:19:15.100Z,6.43
2022-08-10T05:21:52.209Z,6.03
2022-08-10T05:24:28.799Z,5.53
2022-08-10T05:27:09.278Z,5.95
2022-08-10T05:29:36.692Z,5.68
2022-08-10T05:32:03.870Z,5.40
2022-08-10T05:34:30.695Z,5.50
2022-08-10T05:36:58.309Z,6.05
2022-08-10T05:39:30.124Z,5.72
2022-08-10T05:42:01.189Z,6.85
2022-08-10T05:44:29.630Z,5.55
2022-08-10T05:46:56.868Z,5.00
2022-08-10T05:49:23.850Z,6.60
2022-08-10T05:51:51.117Z,5.00
2022-08-10T05:54:18.327Z,5.43
2022-08-10T05:56:55.099Z,6.20
2022-08-10T06:00:10.711Z,7.32
2022-08-10T06:02:40.793Z,5.60
2022-08-10T06:05:14.054Z,5.47
2022-08-10T06:07:59.612Z,5.80
2022-08-10T06:10:32.986Z,5.60
2022-08-10T06:13:30.869Z,5.68
2022-08-10T06:16:05.578Z,6.90
2022-08-10T06:18:32.945Z,5.85
2022-08-10T06:21:00.798Z,5.97
2022-08-10T06:23:30.007Z,5.30
2022-08-10T06:26:08.704Z,4.85
2022-08-10T06:28:54.029Z,5.85
2022-08-10T06:31:47.834Z,5.40
2022-08-10T06:34:20.519Z,6.10
2022-08-10T06:36:49.099Z,5.47
2022-08-10T06:39:32.811Z,4.75
2022-08-10T06:42:30.465Z,4.45
2022-08-10T06:45:03.106Z,4.47
2022-08-10T06:47:42.005Z,4.78
2022-08-10T06:50:44.835Z,4.45
2022-08-10T06:53:13.767Z,4.50
2022-08-10T06:55:55.157Z,3.55
2022-08-10T06:58:29.083Z,5.10
2022-08-10T07:00:56.625Z,5.07
2022-08-10T07:03:31.662Z,4.72
2022-08-10T07:06:00.551Z,4.78
2022-08-10T07:08:32.653Z,4.88
2022-08-10T07:11:02.614Z,5.07
2022-08-10T07:14:15.731Z,4.20
2022-08-10T07:16:19.714Z,4.07
2022-08-10T07:18:48.552Z,4.60
2022-08-10T07:21:17.867Z,4.70
2022-08-10T07:23:59.447Z,4.45
2022-08-10T07:26:30.251Z,4.90
2022-08-10T07:28:58.405Z,5.10
2022-08-10T07:31:51.175Z,3.80
2022-08-10T07:34:21.668Z,4.85
2022-08-10T07:37:00.647Z,6.60
2022-08-10T07:39:58.210Z,4.47
2022-08-10T07:42:21.962Z,4.07
2022-08-10T07:44:50.597Z,3.78
2022-08-10T07:47:52.662Z,3.40
2022-08-10T07:50:13.945Z,3.15
2022-08-10T07:52:42.237Z,3.50
2022-08-10T07:57:44.431Z,3.38
2022-08-10T08:00:12.780Z,4.10
2022-08-10T08:02:52.446Z,3.47
2022-08-10T08:05:53.721Z,3.83
2022-08-10T08:08:10.172Z,2.97
2022-08-10T08:10:38.622Z,2.88
2022-08-10T08:13:06.049Z,3.60
2022-08-10T08:16:18.097Z,3.37
2022-08-10T08:18:25.297Z,2.85
2022-08-10T08:20:54.419Z,2.90
2022-08-10T08:24:30.904Z,3.40
2022-08-10T08:26:11.802Z,2.95
2022-08-10T08:28:43.590Z,3.22
2022-08-10T08:31:10.744Z,3.60
2022-08-10T08:33:42.378Z,3.63
2022-08-10T08:36:10.821Z,3.42
2022-08-10T08:38:38.953Z,3.00
2022-08-10T08:41:45.651Z,5.07
2022-08-10T08:44:34.890Z,3.92
2022-08-10T08:47:33.699Z,3.28
2022-08-10T08:50:15.424Z,3.00
2022-08-10T08:54:01.971Z,2.88
2022-08-10T08:56:26.488Z,3.30
2022-08-10T08:59:19.577Z,4.85
2022-08-10T09:02:22.639Z,3.67
2022-08-10T09:05:17.072Z,2.88
2022-08-10T09:08:10.567Z,2.60
2022-08-10T09:10:42.568Z,3.15
2022-08-10T09:13:34.646Z,2.30
2022-08-10T09:16:24.531Z,2.30
2022-08-10T09:18:54.448Z,2.10
2022-08-10T09:21:58.784Z,2.60
2022-08-10T09:24:46.143Z,2.65
2022-08-10T09:27:20.349Z,2.13
2022-08-10T09:30:02.311Z,2.65
2022-08-10T09:36:16.775Z,2.30
2022-08-10T09:36:21.070Z,1.90
2022-08-10T09:38:37.906Z,2.75
2022-08-10T09:41:13.898Z,2.22
2022-08-10T09:43:57.017Z,2.70
2022-08-10T09:46:42.523Z,2.25
2022-08-10T09:50:04.501Z,2.08
2022-08-10T09:52:58.821Z,1.92
2022-08-10T09:56:19.012Z,2.00
2022-08-10T09:59:26.759Z,2.05
2022-08-10T10:02:27.676Z,1.70
2022-08-10T10:05:03.539Z,2.97
2022-08-10T10:07:30.807Z,2.30
2022-08-10T10:10:08.918Z,2.60
2022-08-10T10:15:54.966Z,1.98
2022-08-10T10:18:49.623Z,2.17
2022-08-10T10:22:00.299Z,2.60
2022-08-10T10:24:47.856Z,2.45
2022-08-10T10:27:32.552Z,2.83
2022-08-10T10:30:08.451Z,2.10
2022-08-10T10:32:47.116Z,1.77
2022-08-10T10:35:31.617Z,2.30
2022-08-10T10:38:03.574Z,1.92
2022-08-10T10:41:13.349Z,1.83
2022-08-10T10:44:04.830Z,2.20
2022-08-10T10:46:53.793Z,2.10
2022-08-10T10:49:38.497Z,2.00
2022-08-10T10:52:26.248Z,2.00
2022-08-10T10:55:03.366Z,1.80
2022-08-10T10:57:58.575Z,1.90
2022-08-10T11:00:37.043Z,2.00
2022-08-10T11:03:15.392Z,2.22
2022-08-10T11:06:09.791Z,2.08
2022-08-10T11:08:52.319Z,1.98
2022-08-10T11:12:01.776Z,2.13
2022-08-10T11:14:41.151Z,2.33
2022-08-10T11:17:18.851Z,1.85
2022-08-10T11:20:02.410Z,1.75
2022-08-10T11:22:37.115Z,1.77
2022-08-10T11:25:26.238Z,1.90
2022-08-10T11:27:52.995Z,1.60
2022-08-10T11:30:42.534Z,3.70
2022-08-10T11:33:31.105Z,5.35
2022-08-10T11:36:05.362Z,3.08
2022-08-10T11:39:03.958Z,2.35
2022-08-10T11:42:09.501Z,2.35
2022-08-10T11:44:53.765Z,1.67
2022-08-10T11:47:45.050Z,1.90
2022-08-10T11:50:36.811Z,2.50
2022-08-10T11:53:03.543Z,2.28
2022-08-10T11:55:33.087Z,2.25
2022-08-10T11:58:27.946Z,1.65
2022-08-10T12:01:02.322Z,2.03
2022-08-10T12:03:34.837Z,2.50
2022-08-10T12:06:04.347Z,2.38
2022-08-10T12:10:04.664Z,2.40
2022-08-10T12:11:26.398Z,2.03
2022-08-10T12:14:21.398Z,1.80
2022-08-10T12:16:52.733Z,1.88
2022-08-10T12:19:59.282Z,2.35
2022-08-10T12:22:31.667Z,2.38
2022-08-10T12:25:03.598Z,3.47
2022-08-10T12:27:46.828Z,2.58
2022-08-10T12:30:18.185Z,2.30
2022-08-10T12:33:03.005Z,2.67
2022-08-10T12:36:16.872Z,2.47
2022-08-10T12:39:13.657Z,2.60
2022-08-10T12:43:02.534Z,2.08
2022-08-10T12:45:19.007Z,2.10
2022-08-10T12:50:32.921Z,2.88
2022-08-10T12:53:41.567Z,2.55
2022-08-10T12:56:08.537Z,2.58
2022-08-10T12:58:58.799Z,2.20
2022-08-10T13:02:09.950Z,1.60
2022-08-10T13:04:24.683Z,2.17
2022-08-10T13:06:52.729Z,2.00
2022-08-10T13:09:24.469Z,2.28
2022-08-10T13:12:35.532Z,2.70
2022-08-10T13:15:45.754Z,3.05
2022-08-10T13:18:18.605Z,2.40
2022-08-10T13:20:52.194Z,2.50
2022-08-10T13:23:26.879Z,2.35
2022-08-10T13:25:56.785Z,2.30
2022-08-10T13:28:39.533Z,2.00
2022-08-10T13:31:16.845Z,2.08
2022-08-10T13:34:36.580Z,2.03
2022-08-10T13:36:47.559Z,2.25
2022-08-10T13:39:17.530Z,2.30
2022-08-10T13:41:47.138Z,2.20
2022-08-10T13:44:27.101Z,1.70
2022-08-10T13:46:55.696Z,2.65
2022-08-10T13:49:23.272Z,2.70
2022-08-10T13:51:54.105Z,2.20
2022-08-10T13:54:29.088Z,2.30
2022-08-10T13:56:57.061Z,2.15
2022-08-10T14:00:37.564Z,2.03
2022-08-10T14:02:48.032Z,2.20
2022-08-10T14:05:22.512Z,2.08
2022-08-10T14:08:00.409Z,2.10
2022-08-10T14:11:08.683Z,2.13
2022-08-10T14:13:21.959Z,2.05
2022-08-10T14:15:50.380Z,2.30
2022-08-10T14:18:18.788Z,1.85
2022-08-10T14:20:47.992Z,2.28
2022-08-10T14:23:16.126Z,2.22
2022-08-10T14:28:14.584Z,2.30
2022-08-10T14:30:43.806Z,2.03
2022-08-10T14:33:15.591Z,2.00
2022-08-10T14:36:22.259Z,2.13
2022-08-10T14:38:35.745Z,2.28
2022-08-10T14:41:11.383Z,2.50
2022-08-10T14:43:42.347Z,2.40
2022-08-10T14:46:19.720Z,2.22
2022-08-10T14:48:49.664Z,2.25
2022-08-10T14:51:26.015Z,2.25
2022-08-10T14:53:55.900Z,2.20
2022-08-10T14:56:28.272Z,2.40
2022-08-10T14:59:05.718Z,2.20
2022-08-10T15:02:39.066Z,1.92
2022-08-10T15:04:28.324Z,2.08
2022-08-10T15:07:12.390Z,2.10
2022-08-10T15:09:59.435Z,1.95
2022-08-10T15:12:38.300Z,2.38
2022-08-10T15:15:09.606Z,1.77
2022-08-10T15:17:39.721Z,2.28
2022-08-10T15:20:21.552Z,2.22
2022-08-10T15:22:53.951Z,1.95
2022-08-10T15:25:26.159Z,1.77
2022-08-10T15:28:08.245Z,2.25
2022-08-10T15:30:45.257Z,2.40
2022-08-10T15:33:57.399Z,2.00
2022-08-10T15:36:43.685Z,1.77
2022-08-10T15:40:22.410Z,1.73
2022-08-10T15:43:27.784Z,2.10
2022-08-10T15:48:48.256Z,1.92
2022-08-10T15:51:33.824Z,2.28
2022-08-10T15:54:17.767Z,2.10
2022-08-10T15:57:09.576Z,2.70
2022-08-10T15:59:53.528Z,2.17
2022-08-10T16:02:26.224Z,2.40
2022-08-10T16:05:06.616Z,2.55
2022-08-10T16:07:49.116Z,2.20
2022-08-10T16:10:29.340Z,3.08
2022-08-10T16:13:51.090Z,3.33
2022-08-10T16:15:55.320Z,3.70
2022-08-10T16:18:26.983Z,2.63
2022-08-10T16:20:57.828Z,2.13
2022-08-10T16:23:29.311Z,2.33
2022-08-10T16:26:05.099Z,2.40
2022-08-10T16:28:55.447Z,2.35
2022-08-10T16:31:25.889Z,2.40
2022-08-10T16:33:55.498Z,2.45
2022-08-10T16:36:34.169Z,2.95
2022-08-10T16:39:02.015Z,3.42
2022-08-10T16:42:02.193Z,3.63
2022-08-10T16:44:22.970Z,3.55
2022-08-10T16:46:50.623Z,2.40
2022-08-10T16:49:19.465Z,2.13
2022-08-10T16:51:48.415Z,2.40
2022-08-10T16:54:26.363Z,2.33
2022-08-10T16:57:02.703Z,2.05
2022-08-10T16:59:36.796Z,2.58
2022-08-10T17:02:05.061Z,2.80
2022-08-10T17:04:35.353Z,2.63
2022-08-10T17:07:11.552Z,2.20
2022-08-10T17:09:39.516Z,2.38
2022-08-10T17:12:11.571Z,2.80
2022-08-10T17:14:40.547Z,2.72
2022-08-10T17:17:26.454Z,2.13
2022-08-10T17:20:32.141Z,2.33
2022-08-10T17:22:49.561Z,2.83
2022-08-10T17:25:23.457Z,2.88
2022-08-10T17:28:12.552Z,2.83
2022-08-10T17:30:57.631Z,2.70
2022-08-10T17:33:30.608Z,2.70
2022-08-10T17:36:03.480Z,2.80
2022-08-10T17:38:31.495Z,2.97
2022-08-10T17:41:11.957Z,2.53
2022-08-10T17:43:46.331Z,2.70
2022-08-10T17:46:33.068Z,3.17
2022-08-10T17:49:05.137Z,4.28
2022-08-10T17:51:36.455Z,4.00
2022-08-10T17:54:31.236Z,3.20
2022-08-10T17:57:01.808Z,2.80
2022-08-10T17:59:31.980Z,2.58
2022-08-10T18:02:14.795Z,2.50
2022-08-10T18:04:48.775Z,2.45
2022-08-10T18:07:16.268Z,2.65
2022-08-10T18:09:49.751Z,3.53
2022-08-10T18:12:29.128Z,2.92
2022-08-10T18:15:04.457Z,2.58
2022-08-10T18:17:39.684Z,2.55
2022-08-10T18:20:08.776Z,2.40
2022-08-10T18:22:48.076Z,3.13
2022-08-10T18:25:23.670Z,2.80
2022-08-10T18:28:04.076Z,3.60
2022-08-10T18:30:36.584Z,4.15
2022-08-10T18:33:08.654Z,3.95
2022-08-10T18:35:36.011Z,4.18
2022-08-10T18:38:04.898Z,4.10
2022-08-10T18:40:35.775Z,3.55
2022-08-10T18:44:07.198Z,3.78
2022-08-10T18:45:57.220Z,3.75
2022-08-10T18:48:33.630Z,3.40
2022-08-10T18:51:06.104Z,3.38
2022-08-10T18:53:48.066Z,3.80
2022-08-10T18:56:21.111Z,3.45
2022-08-10T18:59:15.913Z,3.35
2022-08-10T19:02:01.160Z,3.03
2022-08-10T19:04:35.886Z,3.00
2022-08-10T19:07:30.353Z,3.05
2022-08-10T19:10:06.165Z,3.03
2022-08-10T19:12:41.348Z,3.70
2022-08-10T19:15:34.442Z,3.38
2022-08-10T19:18:07.422Z,3.22
2022-08-10T19:21:02.791Z,2.97
2022-08-10T19:23:29.543Z,3.20
2022-08-10T19:26:41.861Z,3.97
2022-08-10T19:30:11.996Z,4.25
2022-08-10T19:32:19.216Z,4.82
2022-08-10T19:35:08.284Z,5.15
2022-08-10T19:38:00.293Z,4.53
2022-08-10T19:40:44.537Z,4.30
2022-08-10T19:44:00.807Z,3.75
2022-08-10T19:46:39.914Z,4.60
2022-08-10T19:49:25.181Z,4.70
2022-08-10T19:52:11.573Z,5.55
2022-08-10T19:54:43.075Z,5.22
2022-08-10T19:57:26.050Z,6.57
2022-08-10T20:00:18.734Z,6.63
2022-08-10T20:02:51.581Z,6.55
2022-08-10T20:05:23.240Z,6.10
2022-08-10T20:07:58.563Z,4.50
2022-08-10T20:10:33.646Z,4.60
2022-08-10T20:13:42.720Z,3.97
2022-08-10T20:16:26.693Z,4.10
2022-08-10T20:19:24.562Z,3.53
2022-08-10T20:22:14.444Z,4.07
2022-08-10T20:24:52.420Z,4.40
2022-08-10T20:30:14.160Z,4.07
2022-08-10T20:32:54.683Z,3.65
2022-08-10T20:35:58.720Z,3.78
2022-08-10T20:38:34.105Z,3.90
2022-08-10T20:41:12.940Z,5.38
2022-08-10T20:44:03.733Z,4.43
2022-08-10T20:46:40.608Z,4.43
2022-08-10T20:49:52.875Z,3.40
2022-08-10T20:52:22.920Z,4.20
2022-08-10T20:54:53.959Z,4.07
2022-08-10T20:57:54.684Z,3.50
2022-08-10T21:00:17.140Z,3.65
2022-08-10T21:03:21.101Z,3.22
2022-08-10T21:06:41.383Z,3.58
2022-08-10T21:09:37.524Z,3.50
2022-08-10T21:12:48.763Z,3.70
2022-08-10T21:15:31.786Z,3.70
2022-08-10T21:18:12.052Z,3.20
2022-08-10T21:20:54.205Z,3.35
2022-08-10T21:23:45.993Z,2.60
2022-08-10T21:26:29.796Z,3.00
2022-08-10T21:28:56.725Z,3.20
2022-08-10T21:34:10.509Z,2.72
2022-08-10T21:36:39.997Z,3.20
2022-08-10T21:39:45.595Z,2.65
2022-08-10T21:42:57.236Z,2.65
2022-08-10T21:46:18.302Z,2.33
2022-08-10T21:49:17.252Z,2.63
2022-08-10T21:56:15.818Z,2.78
2022-08-10T21:59:19.003Z,2.75
2022-08-10T22:02:11.570Z,2.60
2022-08-10T22:04:57.933Z,2.58
2022-08-10T22:07:46.858Z,2.30
2022-08-10T22:10:35.971Z,2.55
2022-08-10T22:13:23.747Z,2.70
2022-08-10T22:16:17.286Z,2.97
2022-08-10T22:19:08.549Z,2.33
2022-08-10T22:25:52.150Z,2.17
2022-08-10T22:28:38.313Z,2.28
2022-08-10T22:31:26.094Z,2.38
2022-08-10T22:31:38.498Z,2.83
2022-08-10T22:34:45.472Z,2.65
2022-08-10T22:37:55.305Z,2.50
2022-08-10T22:40:43.178Z,2.58
2022-08-10T22:46:29.816Z,2.00
2022-08-10T22:48:59.677Z,3.00
2022-08-10T22:51:56.894Z,2.50
2022-08-10T22:54:51.225Z,2.30
2022-08-10T22:57:37.054Z,2.67
2022-08-10T23:00:15.482Z,2.40
2022-08-10T23:03:03.983Z,2.30
2022-08-10T23:05:34.692Z,2.15
2022-08-10T23:08:29.651Z,2.42
2022-08-10T23:11:02.064Z,2.58
2022-08-10T23:13:35.494Z,2.22
2022-08-10T23:16:38.963Z,2.40
2022-08-10T23:19:28.490Z,2.50
2022-08-10T23:22:04.507Z,2.55
2022-08-10T23:24:38.633Z,2.72
2022-08-10T23:27:12.867Z,3.08
2022-08-10T23:30:09.693Z,2.40
2022-08-10T23:32:41.684Z,2.53
2022-08-10T23:36:32.265Z,2.53
2022-08-10T23:38:08.039Z,2.40
2022-08-10T23:40:36.415Z,2.22
2022-08-10T23:43:05.595Z,2.63
2022-08-10T23:45:53.501Z,2.78
2022-08-10T23:48:23.671Z,2.47
2022-08-10T23:50:58.541Z,2.65
2022-08-10T23:53:38.757Z,2.20
2022-08-10T23:56:14.255Z,2.38
2022-08-10T23:58:47.193Z,2.10
